Time;durP1;ratioP1;P1;durP2;ratioP2;P2;SDS_P1;SDS_P2;PMS_P1;PMS_P2;Temp;Humidity;BMP_temperature;BMP_pressure;BME280_temperature;BME280_humidity;BME280_pressure;Samples;Min_cycle;Max_cycle;Signal;HPM_P1;HPM_P2
2023/08/17 00:00:20;;;;;;;21.17;16.63;;;;;;;;;;5072821;28;20052;-81
2023/08/17 00:02:47;;;;;;;19.80;15.55;;;;;;;;;;5072744;28;20041;-81
2023/08/17 00:05:15;;;;;;;26.42;17.85;;;;;;;;;;5072029;28;20041;-81
2023/08/17 00:07:42;;;;;;;20.27;16.70;;;;;;;;;;5072185;28;20050;-81
2023/08/17 00:10:09;;;;;;;21.38;17.38;;;;;;;;;;5073224;28;20465;-81
2023/08/17 00:12:37;;;;;;;20.05;16.40;;;;;;;;;;5072589;28;20082;-81
2023/08/17 00:15:04;;;;;;;19.00;16.23;;;;;;;;;;5072545;28;20395;-81
2023/08/17 00:17:32;;;;;;;19.08;16.33;;;;;;;;;;5074711;28;20079;-81
2023/08/17 00:19:59;;;;;;;18.42;15.60;;;;;;;;;;5082206;28;20431;-82
2023/08/17 00:22:27;;;;;;;20.23;15.45;;;;;;;;;;5082272;28;20105;-81
2023/08/17 00:24:54;;;;;;;15.48;13.55;;;;;;;;;;5080009;28;20051;-82
2023/08/17 00:27:21;;;;;;;19.65;14.13;;;;;;;;;;5078623;28;20052;-81
2023/08/17 00:29:48;;;;;;;19.45;14.77;;;;;;;;;;5079352;28;20487;-81
2023/08/17 00:32:16;;;;;;;16.88;12.88;;;;;;;;;;5085061;28;20107;-82
2023/08/17 00:34:44;;;;;;;14.88;13.32;;;;;;;;;;5080712;28;20521;-81
2023/08/17 00:37:12;;;;;;;18.27;15.13;;;;;;;;;;5079923;28;20091;-82
2023/08/17 00:39:39;;;;;;;15.25;13.60;;;;;;;;;;5080689;28;20049;-82
2023/08/17 00:42:07;;;;;;;18.75;14.05;;;;;;;;;;5080839;28;20051;-81
2023/08/17 00:44:35;;;;;;;15.32;13.82;;;;;;;;;;5081633;28;20044;-82
2023/08/17 00:47:02;;;;;;;15.90;14.20;;;;;;;;;;5085770;28;20449;-82
2023/08/17 00:49:30;;;;;;;20.38;15.52;;;;;;;;;;5084784;28;20061;-82
2023/08/17 00:51:57;;;;;;;20.17;15.75;;;;;;;;;;5083097;28;20114;-82
2023/08/17 00:54:26;;;;;;;22.38;16.58;;;;;;;;;;5084314;28;20051;-83
2023/08/17 00:56:54;;;;;;;17.15;15.35;;;;;;;;;;5079164;28;20048;-81
2023/08/17 00:59:22;;;;;;;17.23;15.43;;;;;;;;;;5074688;28;20063;-81
2023/08/17 01:01:50;;;;;;;23.63;17.88;;;;;;;;;;5077060;28;20040;-81
2023/08/17 01:04:17;;;;;;;17.67;15.63;;;;;;;;;;5075843;28;20049;-81
2023/08/17 01:06:44;;;;;;;32.20;20.00;;;;;;;;;;5077999;28;20052;-81
2023/08/17 01:09:12;;;;;;;27.67;20.25;;;;;;;;;;5074902;28;20510;-81
2023/08/17 01:11:48;;;;;;;30.98;22.60;;;;;;;;;;5083591;28;20048;-83
2023/08/17 01:14:22;;;;;;;35.47;23.00;;;;;;;;;;5082453;28;20053;-81
2023/08/17 01:16:53;;;;;;;28.50;21.23;;;;;;;;;;5083025;28;20499;-81
2023/08/17 01:19:27;;;;;;;26.65;21.00;;;;;;;;;;5083356;28;20044;-81
2023/08/17 01:21:58;;;;;;;24.88;19.63;;;;;;;;;;5081791;28;20048;-81
2023/08/17 01:24:25;;;;;;;31.52;21.63;;;;;;;;;;5079574;28;20045;-82
2023/08/17 01:26:52;;;;;;;25.73;19.85;;;;;;;;;;5079686;28;20045;-82
2023/08/17 01:29:19;;;;;;;25.52;20.15;;;;;;;;;;5079270;28;20580;-81
2023/08/17 01:31:49;;;;;;;25.85;19.35;;;;;;;;;;5079333;28;20079;-81
2023/08/17 01:34:19;;;;;;;27.20;19.92;;;;;;;;;;5080920;28;20052;-81
2023/08/17 01:36:56;;;;;;;23.40;16.95;;;;;;;;;;5076614;28;20423;-82
2023/08/17 01:39:27;;;;;;;14.68;13.27;;;;;;;;;;5081498;28;20044;-81
2023/08/17 01:41:55;;;;;;;10.65;9.00;;;;;;;;;;5080726;28;20040;-81
2023/08/17 01:44:23;;;;;;;9.43;8.50;;;;;;;;;;5082344;28;20074;-81
2023/08/17 01:46:50;;;;;;;9.27;8.10;;;;;;;;;;5086785;28;20453;-81
2023/08/17 01:49:18;;;;;;;7.35;6.65;;;;;;;;;;5082681;28;20112;-81
2023/08/17 01:51:45;;;;;;;6.80;6.20;;;;;;;;;;5083042;28;20048;-81
2023/08/17 01:54:12;;;;;;;6.32;5.72;;;;;;;;;;5085624;28;20048;-81
2023/08/17 01:56:39;;;;;;;7.40;6.68;;;;;;;;;;5090008;28;20048;-82
2023/08/17 01:59:07;;;;;;;11.65;6.63;;;;;;;;;;5083778;28;20041;-82
2023/08/17 02:01:34;;;;;;;15.20;6.90;;;;;;;;;;5084038;28;20131;-82
2023/08/17 02:04:02;;;;;;;12.00;6.65;;;;;;;;;;5088372;28;20083;-84
2023/08/17 02:06:29;;;;;;;16.23;8.45;;;;;;;;;;5075975;28;20055;-85
2023/08/17 02:08:56;;;;;;;10.70;7.45;;;;;;;;;;5073002;28;20102;-84
2023/08/17 02:11:24;;;;;;;14.88;8.07;;;;;;;;;;5073532;28;20412;-82
2023/08/17 02:13:51;;;;;;;15.60;9.15;;;;;;;;;;5073348;28;20052;-83
2023/08/17 02:16:18;;;;;;;12.85;8.18;;;;;;;;;;5076702;28;20044;-80
2023/08/17 02:18:45;;;;;;;18.55;9.82;;;;;;;;;;5079743;28;20045;-80
2023/08/17 02:21:12;;;;;;;18.05;9.77;;;;;;;;;;5080876;28;20048;-80
2023/08/17 02:23:40;;;;;;;11.90;8.20;;;;;;;;;;5080165;28;20052;-80
2023/08/17 02:26:07;;;;;;;13.07;8.00;;;;;;;;;;5079683;28;20117;-82
2023/08/17 02:28:34;;;;;;;12.32;8.65;;;;;;;;;;5079939;28;20053;-81
2023/08/17 02:31:01;;;;;;;12.35;7.40;;;;;;;;;;5081473;28;20041;-81
2023/08/17 02:33:29;;;;;;;10.43;6.72;;;;;;;;;;5081241;28;20158;-82
2023/08/17 02:35:56;;;;;;;16.42;7.45;;;;;;;;;;5080412;28;20453;-80
2023/08/17 02:38:23;;;;;;;12.38;7.55;;;;;;;;;;5081188;28;20052;-81
2023/08/17 02:40:50;;;;;;;12.07;7.50;;;;;;;;;;5081383;28;20102;-81
2023/08/17 02:43:18;;;;;;;17.15;8.75;;;;;;;;;;5085153;28;20036;-78
2023/08/17 02:45:45;;;;;;;11.60;6.15;;;;;;;;;;5095575;28;20060;-81
2023/08/17 02:48:12;;;;;;;10.00;6.15;;;;;;;;;;5095078;28;20112;-79
2023/08/17 02:50:40;;;;;;;7.72;5.30;;;;;;;;;;5095289;28;20094;-80
2023/08/17 02:53:07;;;;;;;12.70;5.13;;;;;;;;;;5089018;28;20081;-80
2023/08/17 02:55:34;;;;;;;9.63;4.75;;;;;;;;;;5077120;28;20415;-80
2023/08/17 02:58:02;;;;;;;7.07;5.03;;;;;;;;;;5076701;28;20048;-79
2023/08/17 03:00:30;;;;;;;8.52;5.25;;;;;;;;;;5074663;28;20064;-80
2023/08/17 03:02:57;;;;;;;7.13;5.30;;;;;;;;;;5074619;28;20071;-80
2023/08/17 03:05:24;;;;;;;10.52;5.82;;;;;;;;;;5078724;28;20418;-80
2023/08/17 03:07:51;;;;;;;7.88;4.57;;;;;;;;;;5079883;28;20045;-81
2023/08/17 03:10:18;;;;;;;6.65;5.00;;;;;;;;;;5078697;28;20470;-81
2023/08/17 03:12:46;;;;;;;7.63;4.60;;;;;;;;;;5077977;28;20075;-81
2023/08/17 03:15:13;;;;;;;9.25;5.38;;;;;;;;;;5077349;28;20067;-81
2023/08/17 03:17:40;;;;;;;9.07;4.95;;;;;;;;;;5076987;28;20135;-80
2023/08/17 03:20:08;;;;;;;6.53;4.38;;;;;;;;;;5076824;28;20055;-82
2023/08/17 03:22:35;;;;;;;8.77;5.55;;;;;;;;;;5076973;28;20097;-82
2023/08/17 03:25:03;;;;;;;9.35;5.57;;;;;;;;;;5078116;28;20047;-81
2023/08/17 03:27:30;;;;;;;9.10;6.10;;;;;;;;;;5076217;28;20132;-82
2023/08/17 03:29:58;;;;;;;6.65;5.97;;;;;;;;;;5075585;28;20045;-81
2023/08/17 03:32:25;;;;;;;5.97;5.38;;;;;;;;;;5078156;28;20113;-81
2023/08/17 03:34:53;;;;;;;11.02;6.97;;;;;;;;;;5078923;28;20049;-80
2023/08/17 03:37:20;;;;;;;13.20;7.20;;;;;;;;;;5077124;28;20056;-81
2023/08/17 03:39:47;;;;;;;12.15;8.15;;;;;;;;;;5078502;28;20071;-81
2023/08/17 03:42:14;;;;;;;13.90;8.32;;;;;;;;;;5078675;28;20048;-79
2023/08/17 03:44:41;;;;;;;9.65;6.68;;;;;;;;;;5076392;28;20272;-80
2023/08/17 03:47:09;;;;;;;9.93;6.78;;;;;;;;;;5076561;28;20495;-79
2023/08/17 03:49:36;;;;;;;13.13;8.32;;;;;;;;;;5078176;28;20048;-81
2023/08/17 03:52:03;;;;;;;7.70;6.55;;;;;;;;;;5076010;28;20052;-80
2023/08/17 03:54:30;;;;;;;7.05;6.35;;;;;;;;;;5075952;28;20457;-81
2023/08/17 03:56:57;;;;;;;6.47;5.88;;;;;;;;;;5077441;28;20044;-80
2023/08/17 03:59:25;;;;;;;8.68;6.07;;;;;;;;;;5077610;28;20045;-81
2023/08/17 04:01:52;;;;;;;11.00;8.40;;;;;;;;;;5080459;28;20055;-81
2023/08/17 04:04:19;;;;;;;8.73;7.72;;;;;;;;;;5077458;28;20176;-81
2023/08/17 04:06:46;;;;;;;8.27;7.03;;;;;;;;;;5077235;28;20044;-81
2023/08/17 04:09:14;;;;;;;8.68;7.22;;;;;;;;;;5073466;28;20135;-81
2023/08/17 04:11:41;;;;;;;12.85;7.60;;;;;;;;;;5073926;28;20052;-80
2023/08/17 04:14:08;;;;;;;13.52;7.88;;;;;;;;;;5074879;28;20106;-81
2023/08/17 04:16:36;;;;;;;13.65;7.35;;;;;;;;;;5073582;28;20067;-81
2023/08/17 04:19:03;;;;;;;12.80;8.38;;;;;;;;;;5075801;28;20476;-81
2023/08/17 04:21:30;;;;;;;14.05;8.80;;;;;;;;;;5074827;28;20048;-81
2023/08/17 04:23:58;;;;;;;8.57;7.78;;;;;;;;;;5078809;28;20055;-81
2023/08/17 04:26:25;;;;;;;8.88;8.07;;;;;;;;;;5079731;28;20044;-81
2023/08/17 04:28:52;;;;;;;11.18;8.20;;;;;;;;;;5079868;28;20113;-81
2023/08/17 04:31:19;;;;;;;13.20;9.40;;;;;;;;;;5082084;28;20094;-80
2023/08/17 04:33:46;;;;;;;10.73;8.60;;;;;;;;;;5080871;28;20131;-81
2023/08/17 04:36:14;;;;;;;13.52;9.20;;;;;;;;;;5080098;28;20044;-80
2023/08/17 04:38:41;;;;;;;11.93;9.48;;;;;;;;;;5078394;28;20454;-79
2023/08/17 04:41:08;;;;;;;9.15;8.20;;;;;;;;;;5079156;28;20049;-81
2023/08/17 04:43:35;;;;;;;9.90;7.97;;;;;;;;;;5078035;28;20048;-80
2023/08/17 04:46:03;;;;;;;8.98;7.75;;;;;;;;;;5076072;28;20060;-81
2023/08/17 04:48:30;;;;;;;9.57;8.57;;;;;;;;;;5077454;28;20072;-80
2023/08/17 04:50:57;;;;;;;12.73;9.27;;;;;;;;;;5078283;28;20049;-81
2023/08/17 04:53:24;;;;;;;10.85;8.27;;;;;;;;;;5077639;28;20052;-81
2023/08/17 04:55:52;;;;;;;10.07;9.00;;;;;;;;;;5076618;28;20052;-81
2023/08/17 04:58:19;;;;;;;18.88;9.50;;;;;;;;;;5075849;28;20056;-81
2023/08/17 05:00:47;;;;;;;13.55;10.73;;;;;;;;;;5082610;28;20509;-81
2023/08/17 05:03:15;;;;;;;13.50;10.30;;;;;;;;;;5092125;28;20082;-81
2023/08/17 05:05:59;;;;;;;11.60;10.40;;;;;;;;;;5092309;28;20044;-79
2023/08/17 05:08:26;;;;;;;15.23;11.00;;;;;;;;;;5089964;28;20048;-82
2023/08/17 05:10:53;;;;;;;14.63;10.63;;;;;;;;;;5085833;28;20055;-82
2023/08/17 05:13:21;;;;;;;12.38;11.05;;;;;;;;;;5083460;28;20048;-82
2023/08/17 05:15:48;;;;;;;27.10;24.17;;;;;;;;;;5083811;28;20056;-83
2023/08/17 05:18:15;;;;;;;15.48;12.90;;;;;;;;;;5083590;28;20490;-82
2023/08/17 05:20:42;;;;;;;15.55;12.85;;;;;;;;;;5080073;28;20045;-83
2023/08/17 05:23:10;;;;;;;13.00;11.73;;;;;;;;;;5082319;28;20470;-82
2023/08/17 05:25:37;;;;;;;14.45;12.80;;;;;;;;;;5083435;28;20418;-82
2023/08/17 05:28:05;;;;;;;25.00;16.42;;;;;;;;;;5080096;28;20087;-82
2023/08/17 05:30:33;;;;;;;16.02;14.32;;;;;;;;;;5081997;28;20048;-82
2023/08/17 05:33:00;;;;;;;20.85;15.00;;;;;;;;;;5081037;28;20045;-82
2023/08/17 05:35:27;;;;;;;20.80;16.30;;;;;;;;;;5082585;28;20049;-82
2023/08/17 05:37:54;;;;;;;22.48;17.42;;;;;;;;;;5080099;28;20106;-82
2023/08/17 05:40:22;;;;;;;16.52;13.88;;;;;;;;;;5080828;28;20102;-83
2023/08/17 05:42:49;;;;;;;13.35;12.00;;;;;;;;;;5079829;28;20056;-83
2023/08/17 05:45:16;;;;;;;11.30;10.25;;;;;;;;;;5081806;28;20045;-81
2023/08/17 05:47:45;;;;;;;9.57;8.75;;;;;;;;;;5080399;28;20498;-83
2023/08/17 05:50:12;;;;;;;8.27;7.57;;;;;;;;;;5080390;28;20052;-83
2023/08/17 05:52:41;;;;;;;8.20;7.40;;;;;;;;;;5083342;28;20036;-80
2023/08/17 05:55:08;;;;;;;7.97;7.18;;;;;;;;;;5080837;28;20102;-83
2023/08/17 05:57:36;;;;;;;8.20;6.90;;;;;;;;;;5082348;28;20102;-83
2023/08/17 06:00:03;;;;;;;6.28;5.78;;;;;;;;;;5081050;28;20109;-84
2023/08/17 06:02:31;;;;;;;6.90;6.30;;;;;;;;;;5081478;28;20482;-83
2023/08/17 06:04:58;;;;;;;7.57;6.72;;;;;;;;;;5082613;28;20047;-82
2023/08/17 06:07:25;;;;;;;8.60;7.75;;;;;;;;;;5082492;28;20048;-82
2023/08/17 06:09:53;;;;;;;8.35;7.65;;;;;;;;;;5081100;28;20052;-83
2023/08/17 06:12:21;;;;;;;10.02;6.78;;;;;;;;;;5076149;28;20048;-82
2023/08/17 06:14:48;;;;;;;6.03;5.53;;;;;;;;;;5076268;28;20048;-83
2023/08/17 06:17:15;;;;;;;8.05;6.13;;;;;;;;;;5077323;28;20487;-84
2023/08/17 06:19:42;;;;;;;7.50;6.35;;;;;;;;;;5075907;28;20049;-82
2023/08/17 06:22:10;;;;;;;7.55;6.55;;;;;;;;;;5074135;28;20162;-83
2023/08/17 06:24:37;;;;;;;6.22;5.80;;;;;;;;;;5073925;28;20048;-83
2023/08/17 06:27:04;;;;;;;7.00;6.35;;;;;;;;;;5075143;28;20055;-83
2023/08/17 06:29:31;;;;;;;6.05;5.45;;;;;;;;;;5074071;28;20052;-83
2023/08/17 06:31:58;;;;;;;6.90;6.30;;;;;;;;;;5073274;28;20466;-83
2023/08/17 06:34:26;;;;;;;7.05;6.35;;;;;;;;;;5072987;28;20048;-83
2023/08/17 06:37:03;;;;;;;7.28;6.03;;;;;;;;;;5078678;28;20055;-84
2023/08/17 06:39:30;;;;;;;10.43;7.30;;;;;;;;;;5079265;28;20051;-84
2023/08/17 06:41:58;;;;;;;7.38;6.65;;;;;;;;;;5074048;28;20049;-83
2023/08/17 06:44:25;;;;;;;7.90;6.50;;;;;;;;;;5072988;28;20114;-84
2023/08/17 06:46:52;;;;;;;6.43;5.82;;;;;;;;;;5073737;28;20392;-86
2023/08/17 06:49:19;;;;;;;6.18;5.68;;;;;;;;;;5075221;28;20102;-86
2023/08/17 06:51:47;;;;;;;5.57;5.15;;;;;;;;;;5078230;28;20082;-86
2023/08/17 06:54:14;;;;;;;5.22;4.80;;;;;;;;;;5078576;28;20048;-85
2023/08/17 06:56:41;;;;;;;5.57;4.93;;;;;;;;;;5080073;28;20048;-85
2023/08/17 06:59:09;;;;;;;4.15;3.85;;;;;;;;;;5078464;28;20052;-85
2023/08/17 07:01:36;;;;;;;4.03;3.72;;;;;;;;;;5075007;28;20131;-86
2023/08/17 07:04:03;;;;;;;5.28;4.05;;;;;;;;;;5076768;28;20056;-84
2023/08/17 07:06:30;;;;;;;4.53;3.55;;;;;;;;;;5074671;28;20110;-86
2023/08/17 07:08:58;;;;;;;3.88;3.58;;;;;;;;;;5072718;28;20503;-87
2023/08/17 07:11:26;;;;;;;6.22;3.60;;;;;;;;;;5073887;28;20056;-85
2023/08/17 07:13:53;;;;;;;4.22;3.30;;;;;;;;;;5074128;28;20044;-86
2023/08/17 07:16:20;;;;;;;3.60;3.30;;;;;;;;;;5072684;28;20059;-85
2023/08/17 07:18:47;;;;;;;3.53;3.33;;;;;;;;;;5072281;28;20140;-86
2023/08/17 07:21:14;;;;;;;3.83;3.50;;;;;;;;;;5073310;28;20158;-85
2023/08/17 07:23:44;;;;;;;5.10;3.90;;;;;;;;;;5073167;28;20090;-85
2023/08/17 07:26:12;;;;;;;3.95;3.65;;;;;;;;;;5073481;28;20396;-85
2023/08/17 07:28:39;;;;;;;4.32;4.00;;;;;;;;;;5071818;28;20052;-85
2023/08/17 07:31:07;;;;;;;4.00;3.60;;;;;;;;;;5071869;28;20052;-85
2023/08/17 07:33:35;;;;;;;4.15;3.80;;;;;;;;;;5071953;28;20045;-85
2023/08/17 07:36:02;;;;;;;3.78;3.38;;;;;;;;;;5071632;28;20044;-85
2023/08/17 07:38:29;;;;;;;4.35;3.33;;;;;;;;;;5071739;28;20110;-85
2023/08/17 07:40:59;;;;;;;3.42;3.20;;;;;;;;;;5071683;28;20577;-85
2023/08/17 07:43:26;;;;;;;3.35;2.80;;;;;;;;;;5072205;28;20101;-85
2023/08/17 07:45:54;;;;;;;3.05;2.80;;;;;;;;;;5071908;28;20048;-84
2023/08/17 07:48:21;;;;;;;4.00;3.60;;;;;;;;;;5071592;28;20048;-84
2023/08/17 07:50:50;;;;;;;4.13;2.83;;;;;;;;;;5077513;28;20484;-85
2023/08/17 07:53:18;;;;;;;3.83;2.75;;;;;;;;;;5078283;28;20495;-85
2023/08/17 07:55:45;;;;;;;2.70;2.50;;;;;;;;;;5076258;28;20049;-84
2023/08/17 07:58:12;;;;;;;3.55;2.75;;;;;;;;;;5076844;28;20061;-84
2023/08/17 08:00:40;;;;;;;3.38;2.85;;;;;;;;;;5075393;28;20048;-85
2023/08/17 08:03:07;;;;;;;3.15;2.78;;;;;;;;;;5073859;28;20071;-85
2023/08/17 08:05:35;;;;;;;5.55;2.65;;;;;;;;;;5074034;28;20423;-85
2023/08/17 08:08:02;;;;;;;5.38;2.97;;;;;;;;;;5073507;28;20072;-85
2023/08/17 08:10:29;;;;;;;3.20;2.90;;;;;;;;;;5073148;28;20052;-85
2023/08/17 08:12:56;;;;;;;3.63;2.80;;;;;;;;;;5073803;28;20060;-84
2023/08/17 08:15:23;;;;;;;9.00;3.17;;;;;;;;;;5072548;28;20049;-85
2023/08/17 08:17:51;;;;;;;3.35;2.90;;;;;;;;;;5071940;28;20048;-83
2023/08/17 08:20:18;;;;;;;3.38;2.50;;;;;;;;;;5072625;28;20048;-84
2023/08/17 08:22:45;;;;;;;2.88;2.63;;;;;;;;;;5073634;28;20487;-84
2023/08/17 08:25:13;;;;;;;4.47;2.60;;;;;;;;;;5071552;28;20045;-84
2023/08/17 08:27:40;;;;;;;3.22;2.70;;;;;;;;;;5074319;28;20098;-84
2023/08/17 08:30:08;;;;;;;5.03;3.05;;;;;;;;;;5082768;28;20056;-84
2023/08/17 08:32:35;;;;;;;3.80;2.45;;;;;;;;;;5079174;28;20052;-84
2023/08/17 08:35:02;;;;;;;3.33;3.00;;;;;;;;;;5076077;28;20441;-85
2023/08/17 08:37:30;;;;;;;3.05;2.45;;;;;;;;;;5077364;28;20093;-84
2023/08/17 08:39:57;;;;;;;4.07;2.80;;;;;;;;;;5075418;28;20048;-84
2023/08/17 08:42:25;;;;;;;2.95;2.85;;;;;;;;;;5071177;28;20048;-84
2023/08/17 08:44:52;;;;;;;3.95;3.15;;;;;;;;;;5071156;28;20056;-84
2023/08/17 08:47:20;;;;;;;2.88;2.67;;;;;;;;;;5071815;28;20055;-83
2023/08/17 08:49:58;;;;;;;4.25;3.08;;;;;;;;;;5076599;28;20487;-84
2023/08/17 08:52:28;;;;;;;3.83;2.92;;;;;;;;;;5075842;28;20055;-85
2023/08/17 08:54:58;;;;;;;3.00;2.80;;;;;;;;;;5075053;28;20395;-85
2023/08/17 08:57:28;;;;;;;2.97;2.60;;;;;;;;;;5076489;28;20110;-84
2023/08/17 08:59:56;;;;;;;3.03;2.60;;;;;;;;;;5075847;28;20049;-84
2023/08/17 09:02:24;;;;;;;3.80;2.85;;;;;;;;;;5074929;28;20510;-84
2023/08/17 09:04:52;;;;;;;2.70;2.60;;;;;;;;;;5078636;28;20052;-83
2023/08/17 09:07:19;;;;;;;3.55;2.60;;;;;;;;;;5079257;28;20055;-84
2023/08/17 09:09:46;;;;;;;2.97;2.78;;;;;;;;;;5086073;28;20049;-84
2023/08/17 09:12:13;;;;;;;3.47;3.17;;;;;;;;;;5095581;28;20059;-84
2023/08/17 09:14:56;;;;;;;3.20;3.00;;;;;;;;;;5095756;28;20070;-84
2023/08/17 09:17:27;;;;;;;3.72;2.72;;;;;;;;;;5096267;28;20051;-83
2023/08/17 09:19:54;;;;;;;4.38;3.10;;;;;;;;;;5079606;28;20521;-83
2023/08/17 09:22:25;;;;;;;3.30;3.10;;;;;;;;;;5079330;28;20044;-85
2023/08/17 09:24:53;;;;;;;3.33;2.78;;;;;;;;;;5079735;28;20132;-83
2023/08/17 09:27:20;;;;;;;2.97;2.78;;;;;;;;;;5077287;28;20495;-84
2023/08/17 09:29:48;;;;;;;4.95;3.33;;;;;;;;;;5077064;28;20052;-84
2023/08/17 09:32:16;;;;;;;3.08;2.85;;;;;;;;;;5076523;28;20056;-83
2023/08/17 09:34:44;;;;;;;4.85;3.00;;;;;;;;;;5079504;28;20495;-84
2023/08/17 09:37:15;;;;;;;2.50;2.30;;;;;;;;;;5090472;28;20071;-82
2023/08/17 09:39:42;;;;;;;2.95;2.60;;;;;;;;;;5095244;28;20044;-83
2023/08/17 09:42:10;;;;;;;2.78;2.60;;;;;;;;;;5085579;28;20057;-84
2023/08/17 09:44:38;;;;;;;4.68;3.00;;;;;;;;;;5080920;28;20426;-82
2023/08/17 09:47:06;;;;;;;2.72;2.50;;;;;;;;;;5083753;28;20084;-84
2023/08/17 09:49:33;;;;;;;3.28;2.78;;;;;;;;;;5081054;28;20052;-83
2023/08/17 09:52:02;;;;;;;10.30;3.22;;;;;;;;;;5082235;28;20048;-83
2023/08/17 09:54:31;;;;;;;3.00;2.80;;;;;;;;;;5080819;28;20051;-83
2023/08/17 09:56:59;;;;;;;4.05;2.80;;;;;;;;;;5081875;28;20100;-82
2023/08/17 09:59:26;;;;;;;2.72;2.40;;;;;;;;;;5082089;28;20048;-83
2023/08/17 10:01:54;;;;;;;3.60;2.65;;;;;;;;;;5084060;28;20045;-83
2023/08/17 10:04:24;;;;;;;3.75;2.53;;;;;;;;;;5085566;28;20052;-83
2023/08/17 10:07:00;;;;;;;3.83;2.92;;;;;;;;;;5083623;28;20049;-83
2023/08/17 10:09:31;;;;;;;2.65;2.45;;;;;;;;;;5082391;28;20053;-82
2023/08/17 10:12:00;;;;;;;4.13;2.83;;;;;;;;;;5081935;28;20056;-83
2023/08/17 10:14:33;;;;;;;3.28;3.08;;;;;;;;;;5083180;28;20067;-83
2023/08/17 10:17:12;;;;;;;3.15;2.95;;;;;;;;;;5081518;28;20045;-82
2023/08/17 10:19:44;;;;;;;4.70;3.13;;;;;;;;;;5080703;28;20048;-83
2023/08/17 10:22:19;;;;;;;3.28;2.95;;;;;;;;;;5080004;28;20091;-83
2023/08/17 10:24:47;;;;;;;2.92;2.72;;;;;;;;;;5082011;28;20056;-82
2023/08/17 10:27:14;;;;;;;4.57;3.03;;;;;;;;;;5074292;28;20106;-84
2023/08/17 10:29:42;;;;;;;3.22;3.03;;;;;;;;;;5073050;28;20102;-82
2023/08/17 10:32:10;;;;;;;4.30;3.30;;;;;;;;;;5073516;28;20045;-82
2023/08/17 10:34:43;;;;;;;4.03;3.40;;;;;;;;;;5074206;28;20040;-82
2023/08/17 10:37:11;;;;;;;3.20;3.00;;;;;;;;;;5073226;28;20044;-82
2023/08/17 10:39:45;;;;;;;2.70;2.60;;;;;;;;;;5074922;28;20457;-82
2023/08/17 10:42:12;;;;;;;3.95;2.85;;;;;;;;;;5074765;28;20487;-82
2023/08/17 10:44:49;;;;;;;4.80;2.72;;;;;;;;;;5073553;28;20098;-80
2023/08/17 10:47:19;;;;;;;3.38;2.97;;;;;;;;;;5073671;28;20052;-82
2023/08/17 10:49:48;;;;;;;3.42;2.83;;;;;;;;;;5075486;28;20078;-82
2023/08/17 10:52:25;;;;;;;3.45;3.15;;;;;;;;;;5072977;28;20056;-82
2023/08/17 10:54:55;;;;;;;3.45;3.15;;;;;;;;;;5073965;28;20048;-83
2023/08/17 10:57:26;;;;;;;3.75;3.45;;;;;;;;;;5073349;28;20053;-81
2023/08/17 11:00:07;;;;;;;3.42;2.92;;;;;;;;;;5073980;28;20045;-81
2023/08/17 11:02:35;;;;;;;2.67;2.55;;;;;;;;;;5073828;28;20056;-81
2023/08/17 11:05:04;;;;;;;3.88;2.80;;;;;;;;;;5074616;28;20060;-81
2023/08/17 11:07:45;;;;;;;3.58;3.28;;;;;;;;;;5073529;28;20056;-81
2023/08/17 11:10:13;;;;;;;3.45;3.13;;;;;;;;;;5074554;28;20064;-81
2023/08/17 11:12:42;;;;;;;7.22;3.88;;;;;;;;;;5073247;28;20498;-82
2023/08/17 11:15:09;;;;;;;5.30;3.50;;;;;;;;;;5074634;28;20094;-81
2023/08/17 11:17:36;;;;;;;3.63;3.08;;;;;;;;;;5073228;28;20048;-83
2023/08/17 11:20:04;;;;;;;4.78;3.50;;;;;;;;;;5074728;28;20418;-82
2023/08/17 11:22:31;;;;;;;4.40;3.17;;;;;;;;;;5075231;28;20083;-82
2023/08/17 11:24:59;;;;;;;6.28;3.10;;;;;;;;;;5075780;28;20123;-81
2023/08/17 11:27:26;;;;;;;3.17;3.00;;;;;;;;;;5074599;28;20499;-82
2023/08/17 11:29:54;;;;;;;3.65;3.13;;;;;;;;;;5075868;28;20082;-81
2023/08/17 11:32:21;;;;;;;4.38;3.28;;;;;;;;;;5073162;28;20049;-81
2023/08/17 11:34:48;;;;;;;3.35;3.15;;;;;;;;;;5075314;28;20056;-81
2023/08/17 11:37:16;;;;;;;5.50;3.35;;;;;;;;;;5073362;28;20102;-81
2023/08/17 11:39:44;;;;;;;4.60;3.08;;;;;;;;;;5075634;28;20083;-82
2023/08/17 11:42:12;;;;;;;3.83;3.28;;;;;;;;;;5079081;28;20074;-82
2023/08/17 11:44:39;;;;;;;4.30;3.30;;;;;;;;;;5083896;28;20552;-82
2023/08/17 11:47:07;;;;;;;3.50;3.00;;;;;;;;;;5082889;28;20045;-84
2023/08/17 11:49:34;;;;;;;6.50;3.58;;;;;;;;;;5082692;28;20078;-82
2023/08/17 11:52:04;;;;;;;3.60;3.45;;;;;;;;;;5082864;28;20041;-81
2023/08/17 11:54:33;;;;;;;3.92;3.63;;;;;;;;;;5079766;28;20095;-81
2023/08/17 11:57:01;;;;;;;4.63;3.75;;;;;;;;;;5081117;28;20053;-81
2023/08/17 11:59:33;;;;;;;3.72;3.53;;;;;;;;;;5080605;28;20040;-81
2023/08/17 12:02:01;;;;;;;4.93;3.97;;;;;;;;;;5078971;28;20045;-83
2023/08/17 12:04:29;;;;;;;6.25;3.90;;;;;;;;;;5076307;28;20139;-81
2023/08/17 12:06:56;;;;;;;4.57;4.30;;;;;;;;;;5074746;28;20530;-81
2023/08/17 12:09:24;;;;;;;4.50;4.10;;;;;;;;;;5073845;28;20044;-81
2023/08/17 12:11:59;;;;;;;4.05;3.72;;;;;;;;;;5072697;28;20101;-82
2023/08/17 12:14:27;;;;;;;4.10;3.80;;;;;;;;;;5072386;28;20052;-80
2023/08/17 12:16:55;;;;;;;5.05;4.60;;;;;;;;;;5073968;28;20074;-81
2023/08/17 12:19:25;;;;;;;4.53;4.30;;;;;;;;;;5073117;28;20040;-80
2023/08/17 12:21:52;;;;;;;4.10;3.88;;;;;;;;;;5073289;28;20052;-80
2023/08/17 12:24:20;;;;;;;5.05;4.60;;;;;;;;;;5072834;28;20537;-82
2023/08/17 12:26:47;;;;;;;4.40;4.00;;;;;;;;;;5074036;28;20403;-82
2023/08/17 12:29:15;;;;;;;3.83;3.63;;;;;;;;;;5071356;28;20056;-82
2023/08/17 12:31:42;;;;;;;6.35;4.20;;;;;;;;;;5073118;28;20048;-81
2023/08/17 12:34:09;;;;;;;6.47;4.18;;;;;;;;;;5075016;28;20044;-82
2023/08/17 12:36:37;;;;;;;4.57;4.30;;;;;;;;;;5074748;28;20041;-80
2023/08/17 12:39:05;;;;;;;4.45;4.10;;;;;;;;;;5074913;28;20044;-82
2023/08/17 12:41:32;;;;;;;7.30;4.45;;;;;;;;;;5074056;28;20062;-81
2023/08/17 12:44:01;;;;;;;4.70;4.30;;;;;;;;;;5073876;28;20457;-81
2023/08/17 12:46:32;;;;;;;4.32;4.03;;;;;;;;;;5076185;28;20045;-81
2023/08/17 12:49:00;;;;;;;5.18;4.13;;;;;;;;;;5078544;28;20056;-81
2023/08/17 12:51:27;;;;;;;4.25;4.05;;;;;;;;;;5077364;28;20064;-82
2023/08/17 12:53:54;;;;;;;6.05;4.43;;;;;;;;;;5078470;28;20487;-81
2023/08/17 12:56:21;;;;;;;5.03;4.63;;;;;;;;;;5078265;28;20052;-81
2023/08/17 12:58:48;;;;;;;4.70;4.40;;;;;;;;;;5076743;28;20553;-82
2023/08/17 13:01:16;;;;;;;4.75;4.40;;;;;;;;;;5078398;28;20105;-82
2023/08/17 13:03:43;;;;;;;10.48;4.88;;;;;;;;;;5076592;28;20106;-82
2023/08/17 13:06:10;;;;;;;5.18;4.78;;;;;;;;;;5079157;28;20055;-81
2023/08/17 13:08:37;;;;;;;5.22;4.47;;;;;;;;;;5077173;28;20052;-81
2023/08/17 13:11:05;;;;;;;5.22;4.75;;;;;;;;;;5077349;28;20063;-82
2023/08/17 13:13:32;;;;;;;5.13;4.72;;;;;;;;;;5078509;28;20053;-82
2023/08/17 13:15:59;;;;;;;4.93;4.57;;;;;;;;;;5076095;28;20118;-82
2023/08/17 13:18:28;;;;;;;6.32;4.70;;;;;;;;;;5079191;28;20056;-82
2023/08/17 13:20:55;;;;;;;5.47;4.95;;;;;;;;;;5077456;28;20106;-82
2023/08/17 13:23:23;;;;;;;5.18;4.78;;;;;;;;;;5083929;28;20052;-81
2023/08/17 13:25:50;;;;;;;6.20;4.60;;;;;;;;;;5084210;28;20472;-82
2023/08/17 13:28:17;;;;;;;8.20;4.97;;;;;;;;;;5084402;28;20511;-82
2023/08/17 13:30:44;;;;;;;5.00;4.70;;;;;;;;;;5081254;28;20044;-82
2023/08/17 13:33:12;;;;;;;6.20;4.88;;;;;;;;;;5080619;28;20045;-82
2023/08/17 13:35:39;;;;;;;6.13;4.88;;;;;;;;;;5081898;28;20054;-81
2023/08/17 13:38:07;;;;;;;5.22;4.72;;;;;;;;;;5082077;28;20041;-81
2023/08/17 13:40:36;;;;;;;4.80;4.40;;;;;;;;;;5081140;28;20143;-81
2023/08/17 13:43:03;;;;;;;5.30;4.90;;;;;;;;;;5077931;28;20481;-81
2023/08/17 13:45:30;;;;;;;5.38;4.88;;;;;;;;;;5077292;28;20502;-81
2023/08/17 13:47:58;;;;;;;5.90;4.93;;;;;;;;;;5075930;28;20675;-81
2023/08/17 13:50:25;;;;;;;6.15;5.38;;;;;;;;;;5074141;28;20052;-81
2023/08/17 13:52:52;;;;;;;5.40;5.00;;;;;;;;;;5075695;28;20106;-81
2023/08/17 13:55:19;;;;;;;5.85;5.30;;;;;;;;;;5075384;28;20103;-82
2023/08/17 13:57:47;;;;;;;5.28;5.07;;;;;;;;;;5075194;28;20102;-81
2023/08/17 14:00:14;;;;;;;7.18;5.40;;;;;;;;;;5075123;28;20075;-81
2023/08/17 14:02:42;;;;;;;6.53;4.75;;;;;;;;;;5075034;28;20048;-81
2023/08/17 14:05:09;;;;;;;5.70;5.20;;;;;;;;;;5075597;28;20049;-82
2023/08/17 14:07:36;;;;;;;8.20;5.10;;;;;;;;;;5075255;28;20106;-82
2023/08/17 14:10:04;;;;;;;5.88;5.00;;;;;;;;;;5079550;28;20052;-81
2023/08/17 14:12:39;;;;;;;5.88;5.28;;;;;;;;;;5079037;28;20334;-82
2023/08/17 14:15:07;;;;;;;5.18;4.80;;;;;;;;;;5078159;28;20101;-82
2023/08/17 14:17:34;;;;;;;6.30;4.93;;;;;;;;;;5076579;28;20109;-81
2023/08/17 14:20:04;;;;;;;6.32;4.95;;;;;;;;;;5076891;28;20082;-82
2023/08/17 14:22:32;;;;;;;7.40;5.20;;;;;;;;;;5077288;28;20469;-82
2023/08/17 14:24:59;;;;;;;5.40;4.93;;;;;;;;;;5078247;28;20048;-82
2023/08/17 14:27:26;;;;;;;5.15;4.75;;;;;;;;;;5077242;28;20051;-82
2023/08/17 14:29:53;;;;;;;5.57;5.18;;;;;;;;;;5077844;28;20070;-82
2023/08/17 14:32:21;;;;;;;8.13;5.05;;;;;;;;;;5077159;28;20499;-84
2023/08/17 14:34:48;;;;;;;4.03;3.22;;;;;;;;;;5078356;28;20418;-82
2023/08/17 14:37:16;;;;;;;6.80;3.20;;;;;;;;;;5077380;28;20052;-82
2023/08/17 14:39:43;;;;;;;3.28;2.80;;;;;;;;;;5078566;28;20056;-84